createdAt,value
2022-12-29T00:01:58.736Z,-3.03
2022-12-29T00:04:25.399Z,-3.04
2022-12-29T00:06:53.378Z,-3.01
2022-12-29T00:09:20.236Z,-3.04
2022-12-29T00:11:47.079Z,-3.02
2022-12-29T00:14:32.924Z,-3.07
2022-12-29T00:16:59.522Z,-3.12
2022-12-29T00:19:45.603Z,-3.14
2022-12-29T00:22:33.272Z,-3.14
2022-12-29T00:25:20.285Z,-3.17
2022-12-29T00:28:07.665Z,-3.22
2022-12-29T00:30:53.390Z,-3.25
2022-12-29T00:33:40.481Z,-3.24
2022-12-29T00:36:12.703Z,-3.27
2022-12-29T00:39:01.948Z,-3.39
2022-12-29T00:41:47.077Z,-3.28
2022-12-29T00:44:14.948Z,-3.30
2022-12-29T00:46:43.133Z,-3.26
2022-12-29T00:49:31.553Z,-3.28
2022-12-29T00:52:06.912Z,-3.29
2022-12-29T00:54:36.391Z,-3.30
2022-12-29T00:57:04.647Z,-3.35
2022-12-29T00:59:31.355Z,-3.36
2022-12-29T01:04:34.991Z,-3.33
2022-12-29T01:07:09.075Z,-3.48
2022-12-29T01:09:54.616Z,-3.33
2022-12-29T01:12:41.931Z,-3.36
2022-12-29T01:15:13.073Z,-3.37
2022-12-29T01:17:43.417Z,-3.44
2022-12-29T01:20:14.261Z,-3.62
2022-12-29T01:22:48.744Z,-3.45
2022-12-29T01:25:21.370Z,-3.52
2022-12-29T01:27:54.616Z,-3.49
2022-12-29T01:30:21.475Z,-3.53
2022-12-29T01:32:48.116Z,-3.51
2022-12-29T01:35:14.749Z,-3.49
2022-12-29T01:37:41.444Z,-3.52
2022-12-29T01:40:08.580Z,-3.53
2022-12-29T01:42:35.227Z,-3.50
2022-12-29T01:45:12.088Z,-3.53
2022-12-29T01:47:45.775Z,-3.54
2022-12-29T01:50:12.565Z,-3.54
2022-12-29T01:52:47.791Z,-3.57
2022-12-29T01:55:15.576Z,-3.59
2022-12-29T01:57:47.660Z,-3.60
2022-12-29T02:00:15.141Z,-3.61
2022-12-29T02:02:48.936Z,-3.65
2022-12-29T02:05:27.330Z,-3.67
2022-12-29T02:07:54.393Z,-3.73
2022-12-29T02:10:23.831Z,-3.69
2022-12-29T02:12:50.867Z,-3.74
2022-12-29T02:15:18.079Z,-3.81
2022-12-29T02:18:02.776Z,-3.73
2022-12-29T02:20:38.917Z,-3.70
2022-12-29T02:23:26.828Z,-3.74
2022-12-29T02:26:22.337Z,-3.77
2022-12-29T02:29:34.329Z,-3.76
2022-12-29T02:32:07.224Z,-3.77
2022-12-29T02:34:51.694Z,-3.78
2022-12-29T02:37:25.645Z,-3.80
2022-12-29T02:39:57.472Z,-3.78
2022-12-29T02:42:46.020Z,-3.79
2022-12-29T02:45:31.848Z,-3.85
2022-12-29T02:48:22.899Z,-3.82
2022-12-29T02:51:02.671Z,-3.83
2022-12-29T02:53:49.279Z,-3.82
2022-12-29T02:56:15.913Z,-3.83
2022-12-29T02:58:42.597Z,-3.89
2022-12-29T03:02:09.737Z,-3.83
2022-12-29T03:04:44.827Z,-3.85
2022-12-29T03:07:44.930Z,-3.89
2022-12-29T03:10:48.565Z,-3.89
2022-12-29T03:13:45.925Z,-4.02
2022-12-29T03:16:20.074Z,-3.96
2022-12-29T03:19:05.917Z,-3.95
2022-12-29T03:21:59.147Z,-3.96
2022-12-29T03:24:30.341Z,-3.99
2022-12-29T03:27:00.577Z,-4.00
2022-12-29T03:29:30.602Z,-4.02
2022-12-29T03:31:59.512Z,-4.00
2022-12-29T03:34:27.530Z,-4.00
2022-12-29T03:37:05.980Z,-3.98
2022-12-29T03:39:32.950Z,-4.02
2022-12-29T03:42:04.036Z,-4.02
2022-12-29T03:44:37.581Z,-4.00
2022-12-29T03:47:04.920Z,-4.02
2022-12-29T03:49:31.498Z,-4.05
2022-12-29T03:51:58.168Z,-4.04
2022-12-29T03:54:24.969Z,-4.05
2022-12-29T03:56:52.006Z,-4.02
2022-12-29T03:59:18.732Z,-4.02
2022-12-29T04:01:45.728Z,-4.05
2022-12-29T04:04:12.428Z,-4.14
2022-12-29T04:06:39.430Z,-4.05
2022-12-29T04:09:06.397Z,-4.09
2022-12-29T04:11:34.476Z,-4.13
2022-12-29T04:14:01.704Z,-4.16
2022-12-29T04:16:28.390Z,-4.19
2022-12-29T04:18:55.138Z,-4.19
2022-12-29T04:21:21.865Z,-4.15
2022-12-29T04:23:48.635Z,-4.17
2022-12-29T04:26:15.343Z,-4.17
2022-12-29T04:28:42.029Z,-4.29
2022-12-29T04:31:08.921Z,-4.15
2022-12-29T04:33:35.592Z,-4.17
2022-12-29T04:36:02.268Z,-4.16
2022-12-29T04:38:28.991Z,-4.21
2022-12-29T04:40:55.780Z,-4.21
2022-12-29T04:43:25.217Z,-4.24
2022-12-29T04:45:52.164Z,-4.24
2022-12-29T04:48:18.829Z,-4.25
2022-12-29T04:50:48.697Z,-4.26
2022-12-29T04:53:16.129Z,-4.30
2022-12-29T04:55:43.104Z,-4.31
2022-12-29T04:58:10.171Z,-4.32
2022-12-29T05:00:37.055Z,-4.33
2022-12-29T05:03:03.985Z,-4.34
2022-12-29T05:05:30.910Z,-4.36
2022-12-29T05:07:57.641Z,-4.35
2022-12-29T05:10:24.849Z,-4.39
2022-12-29T05:12:51.486Z,-4.38
2022-12-29T05:15:18.591Z,-4.34
2022-12-29T05:17:45.386Z,-4.38
2022-12-29T05:20:12.234Z,-4.39
2022-12-29T05:22:38.933Z,-4.42
2022-12-29T05:25:06.099Z,-4.42
2022-12-29T05:27:32.825Z,-4.43
2022-12-29T05:30:00.340Z,-4.44
2022-12-29T05:32:26.978Z,-4.45
2022-12-29T05:34:53.613Z,-4.47
2022-12-29T05:37:20.367Z,-4.50
2022-12-29T05:39:47.053Z,-4.49
2022-12-29T05:42:13.776Z,-4.49
2022-12-29T05:44:41.481Z,-4.49
2022-12-29T05:47:08.211Z,-4.48
2022-12-29T05:49:34.830Z,-4.47
2022-12-29T05:52:01.508Z,-4.49
2022-12-29T05:54:28.223Z,-4.47
2022-12-29T05:56:54.875Z,-4.52
2022-12-29T05:59:21.584Z,-4.47
2022-12-29T06:01:48.402Z,-4.45
2022-12-29T06:04:15.104Z,-4.47
2022-12-29T06:06:42.443Z,-4.50
2022-12-29T06:09:11.079Z,-4.46
2022-12-29T06:11:38.666Z,-4.49
2022-12-29T06:14:05.414Z,-4.46
2022-12-29T06:16:32.006Z,-4.56
2022-12-29T06:18:58.733Z,-4.46
2022-12-29T06:21:25.715Z,-4.47
2022-12-29T06:23:52.412Z,-4.51
2022-12-29T06:26:19.283Z,-4.47
2022-12-29T06:28:46.093Z,-4.50
2022-12-29T06:31:12.911Z,-4.46
2022-12-29T06:33:39.618Z,-4.50
2022-12-29T06:36:06.643Z,-4.49
2022-12-29T06:38:34.007Z,-4.47
2022-12-29T06:41:00.625Z,-4.43
2022-12-29T06:43:27.284Z,-4.52
2022-12-29T06:45:53.900Z,-4.35
2022-12-29T06:48:20.555Z,-4.33
2022-12-29T06:50:47.110Z,-4.27
2022-12-29T06:53:13.831Z,-4.21
2022-12-29T06:55:40.530Z,-4.17
2022-12-29T06:58:07.441Z,-4.11
2022-12-29T07:00:34.103Z,-4.08
2022-12-29T07:03:00.904Z,-4.04
2022-12-29T07:05:28.827Z,-4.00
2022-12-29T07:07:56.258Z,-3.97
2022-12-29T07:10:24.280Z,-3.94
2022-12-29T07:12:51.570Z,-3.92
2022-12-29T07:15:18.614Z,-3.92
2022-12-29T07:17:45.250Z,-3.88
2022-12-29T07:20:11.944Z,-3.86
2022-12-29T07:22:39.899Z,-3.83
2022-12-29T07:25:06.695Z,-3.83
2022-12-29T07:27:33.706Z,-3.81
2022-12-29T07:30:00.352Z,-3.81
2022-12-29T07:32:26.964Z,-3.81
2022-12-29T07:34:53.743Z,-3.81
2022-12-29T07:37:20.972Z,-3.78
2022-12-29T07:39:47.831Z,-3.75
2022-12-29T07:42:14.449Z,-3.65
2022-12-29T07:44:41.189Z,-3.58
2022-12-29T07:47:08.000Z,-3.53
2022-12-29T07:49:34.676Z,-3.43
2022-12-29T07:52:01.582Z,-3.31
2022-12-29T07:54:28.411Z,-3.26
2022-12-29T07:56:55.378Z,-3.14
2022-12-29T07:59:22.261Z,-3.09
2022-12-29T08:01:48.944Z,-2.99
2022-12-29T08:04:15.901Z,-2.92
2022-12-29T08:06:42.790Z,-2.82
2022-12-29T08:09:16.402Z,-2.76
2022-12-29T08:11:46.487Z,-2.62
2022-12-29T08:14:14.424Z,-2.54
2022-12-29T08:16:41.068Z,-2.46
2022-12-29T08:19:07.814Z,-2.38
2022-12-29T08:21:34.599Z,-2.30
2022-12-29T08:24:01.595Z,-2.24
2022-12-29T08:26:28.414Z,-2.16
2022-12-29T08:28:56.674Z,-2.05
2022-12-29T08:31:24.272Z,-1.95
2022-12-29T08:33:51.239Z,-1.87
2022-12-29T08:36:18.139Z,-1.79
2022-12-29T08:38:44.911Z,-1.70
2022-12-29T08:41:11.620Z,-1.62
2022-12-29T08:43:38.278Z,-1.52
2022-12-29T08:46:05.233Z,-1.45
2022-12-29T08:48:32.056Z,-1.35
2022-12-29T08:50:58.702Z,-1.26
2022-12-29T08:53:25.450Z,-1.17
2022-12-29T08:56:05.021Z,-1.09
2022-12-29T08:58:32.827Z,-0.97
2022-12-29T09:00:59.963Z,-0.87
2022-12-29T09:03:54.920Z,-0.73
2022-12-29T09:06:15.980Z,-0.56
2022-12-29T09:08:42.756Z,-0.44
2022-12-29T09:11:21.969Z,-0.32
2022-12-29T09:13:49.336Z,-0.20
2022-12-29T09:16:17.750Z,-0.06
2022-12-29T09:18:45.580Z,0.04
2022-12-29T09:21:13.319Z,0.13
2022-12-29T09:23:40.564Z,0.21
2022-12-29T09:26:08.687Z,0.31
2022-12-29T09:28:35.748Z,0.40
2022-12-29T09:31:03.297Z,0.48
2022-12-29T09:33:30.096Z,0.57
2022-12-29T09:35:58.771Z,0.67
2022-12-29T09:38:27.406Z,0.73
2022-12-29T09:41:15.144Z,0.90
2022-12-29T09:43:45.273Z,1.09
2022-12-29T09:46:40.298Z,1.25
2022-12-29T09:49:15.690Z,1.36
2022-12-29T09:51:46.120Z,1.48
2022-12-29T09:54:51.514Z,1.62
2022-12-29T09:57:26.280Z,1.77
2022-12-29T10:00:07.877Z,1.86
2022-12-29T10:02:53.106Z,2.01
2022-12-29T10:05:39.726Z,2.16
2022-12-29T10:08:17.398Z,2.29
2022-12-29T10:11:28.798Z,2.46
2022-12-29T10:14:15.785Z,2.60
2022-12-29T10:17:20.092Z,2.74
2022-12-29T10:19:58.978Z,2.88
2022-12-29T10:22:46.600Z,3.01
2022-12-29T10:25:25.116Z,3.14
2022-12-29T10:27:59.807Z,3.24
2022-12-29T10:30:26.822Z,3.30
2022-12-29T10:32:58.900Z,3.48
2022-12-29T10:35:32.077Z,3.58
2022-12-29T10:38:27.391Z,3.65
2022-12-29T10:41:18.651Z,3.77
2022-12-29T10:43:49.340Z,3.90
2022-12-29T10:46:26.050Z,4.00
2022-12-29T10:48:52.765Z,4.10
2022-12-29T10:51:25.613Z,4.23
2022-12-29T10:54:01.133Z,4.35
2022-12-29T10:56:34.106Z,4.45
2022-12-29T10:59:20.202Z,4.55
2022-12-29T11:01:58.623Z,4.60
2022-12-29T11:04:59.800Z,4.69
2022-12-29T11:07:27.738Z,4.74
2022-12-29T11:09:55.601Z,4.88
2022-12-29T11:12:29.433Z,4.98
2022-12-29T11:15:17.296Z,5.08
2022-12-29T11:17:46.833Z,5.14
2022-12-29T11:20:36.169Z,5.27
2022-12-29T11:23:05.562Z,5.27
2022-12-29T11:25:32.473Z,5.30
2022-12-29T11:28:19.464Z,5.39
2022-12-29T11:30:59.799Z,5.48
2022-12-29T11:33:32.636Z,5.60
2022-12-29T11:36:21.946Z,5.62
2022-12-29T11:38:53.521Z,5.66
2022-12-29T11:41:32.631Z,5.77
2022-12-29T11:44:03.512Z,5.82
2022-12-29T11:46:37.482Z,5.91
2022-12-29T11:49:05.360Z,6.02
2022-12-29T11:51:40.621Z,6.08
2022-12-29T11:54:07.966Z,6.16
2022-12-29T11:56:43.542Z,6.25
2022-12-29T11:59:30.878Z,6.31
2022-12-29T12:02:00.069Z,6.36
2022-12-29T12:04:35.375Z,6.39
2022-12-29T12:07:11.192Z,6.43
2022-12-29T12:10:03.159Z,6.42
2022-12-29T12:12:47.600Z,6.46
2022-12-29T12:15:24.267Z,6.46
2022-12-29T12:18:16.029Z,6.51
2022-12-29T12:20:47.297Z,6.53
2022-12-29T12:23:45.265Z,6.54
2022-12-29T12:26:19.710Z,6.56
2022-12-29T12:29:00.350Z,6.52
2022-12-29T12:31:32.720Z,6.44
2022-12-29T12:34:05.709Z,6.33
2022-12-29T12:36:58.518Z,6.36
2022-12-29T12:39:32.071Z,6.34
2022-12-29T12:42:23.452Z,6.30
2022-12-29T12:45:09.156Z,6.28
2022-12-29T12:48:06.930Z,6.27
2022-12-29T12:51:10.006Z,6.26
2022-12-29T12:53:43.392Z,6.27
2022-12-29T12:56:25.882Z,6.27
2022-12-29T12:59:10.041Z,6.23
2022-12-29T13:01:49.033Z,6.15
2022-12-29T13:04:38.026Z,6.04
2022-12-29T13:07:29.501Z,6.00
2022-12-29T13:10:34.462Z,5.98
2022-12-29T13:13:22.683Z,5.97
2022-12-29T13:16:09.566Z,6.00
2022-12-29T13:19:05.404Z,6.02
2022-12-29T13:21:41.023Z,6.07
2022-12-29T13:24:37.505Z,6.04
2022-12-29T13:27:15.191Z,6.10
2022-12-29T13:29:59.633Z,6.08
2022-12-29T13:32:35.409Z,6.11
2022-12-29T13:35:20.814Z,6.10
2022-12-29T13:37:51.321Z,6.03
2022-12-29T13:40:23.609Z,6.00
2022-12-29T13:42:50.943Z,5.99
2022-12-29T13:45:29.656Z,5.97
2022-12-29T13:48:06.502Z,5.96
2022-12-29T13:50:38.198Z,5.90
2022-12-29T13:53:26.631Z,5.86
2022-12-29T13:56:11.281Z,5.85
2022-12-29T13:58:49.535Z,5.83
2022-12-29T14:01:29.844Z,5.78
2022-12-29T14:03:59.031Z,5.73
2022-12-29T14:06:29.476Z,5.64
2022-12-29T14:09:05.945Z,5.55
2022-12-29T14:11:36.271Z,5.50
2022-12-29T14:14:22.229Z,5.43
2022-12-29T14:16:49.449Z,5.38
2022-12-29T14:19:25.351Z,5.34
2022-12-29T14:22:00.684Z,5.26
2022-12-29T14:24:36.944Z,5.15
2022-12-29T14:27:13.158Z,5.05
2022-12-29T14:29:39.929Z,4.94
2022-12-29T14:32:25.495Z,4.87
2022-12-29T14:34:57.497Z,4.75
2022-12-29T14:37:27.402Z,4.69
2022-12-29T14:40:15.705Z,4.59
2022-12-29T14:42:43.393Z,4.48
2022-12-29T14:45:16.061Z,4.42
2022-12-29T14:47:45.664Z,4.29
2022-12-29T14:50:12.243Z,4.25
2022-12-29T14:53:04.212Z,4.15
2022-12-29T14:55:50.986Z,3.99
2022-12-29T14:58:27.186Z,3.87
2022-12-29T15:00:54.489Z,3.76
2022-12-29T15:03:30.605Z,3.59
2022-12-29T15:06:09.177Z,3.48
2022-12-29T15:08:47.501Z,3.38
2022-12-29T15:11:19.461Z,3.32
2022-12-29T15:13:46.977Z,3.17
2022-12-29T15:16:30.630Z,3.11
2022-12-29T15:18:57.713Z,3.06
2022-12-29T15:21:28.184Z,2.95
2022-12-29T15:23:55.018Z,2.86
2022-12-29T15:26:54.554Z,2.70
2022-12-29T15:29:34.682Z,2.74
2022-12-29T15:32:16.572Z,2.64
2022-12-29T15:34:45.111Z,2.60
2022-12-29T15:37:18.935Z,2.55
2022-12-29T15:39:45.592Z,2.48
2022-12-29T15:42:30.876Z,2.46
2022-12-29T15:45:08.828Z,2.39
2022-12-29T15:47:36.889Z,2.30
2022-12-29T15:50:23.709Z,2.30
2022-12-29T15:52:51.236Z,2.24
2022-12-29T15:55:28.832Z,2.21
2022-12-29T15:58:00.887Z,2.14
2022-12-29T16:00:31.689Z,2.06
2022-12-29T16:03:02.120Z,2.02
2022-12-29T16:05:38.139Z,1.99
2022-12-29T16:08:23.868Z,1.96
2022-12-29T16:10:51.441Z,1.93
2022-12-29T16:13:40.005Z,1.87
2022-12-29T16:16:21.949Z,1.82
2022-12-29T16:18:53.532Z,1.78
2022-12-29T16:21:33.154Z,1.73
2022-12-29T16:24:21.902Z,1.67
2022-12-29T16:27:04.165Z,1.62
2022-12-29T16:29:31.667Z,1.52
2022-12-29T16:32:06.412Z,1.49
2022-12-29T16:34:43.060Z,1.38
2022-12-29T16:37:32.168Z,1.43
2022-12-29T16:40:18.747Z,1.39
2022-12-29T16:42:51.867Z,1.35
2022-12-29T16:45:22.560Z,1.31
2022-12-29T16:48:07.440Z,1.28
2022-12-29T16:50:36.286Z,1.24
2022-12-29T16:53:04.387Z,1.17
2022-12-29T16:55:31.775Z,1.17
2022-12-29T16:58:00.168Z,1.13
2022-12-29T17:00:30.209Z,1.12
2022-12-29T17:02:59.919Z,1.10
2022-12-29T17:05:26.947Z,1.05
2022-12-29T17:07:53.925Z,1.02
2022-12-29T17:10:20.626Z,0.99
2022-12-29T17:12:49.653Z,0.98
2022-12-29T17:15:25.872Z,0.97
2022-12-29T17:17:55.236Z,0.95
2022-12-29T17:20:25.242Z,0.92
2022-12-29T17:22:55.715Z,0.87
2022-12-29T17:25:27.634Z,0.87
2022-12-29T17:27:59.005Z,0.82
2022-12-29T17:30:33.258Z,0.79
2022-12-29T17:33:09.003Z,0.77
2022-12-29T17:35:36.209Z,0.73
2022-12-29T17:38:02.859Z,0.75
2022-12-29T17:40:32.749Z,0.72
2022-12-29T17:43:00.416Z,0.69
2022-12-29T17:45:30.406Z,0.70
2022-12-29T17:48:01.641Z,0.71
2022-12-29T17:50:30.862Z,0.70
2022-12-29T17:53:01.776Z,0.66
2022-12-29T17:55:36.881Z,0.65
2022-12-29T17:58:28.675Z,0.61
2022-12-29T18:00:58.441Z,0.56
2022-12-29T18:03:30.464Z,0.52
2022-12-29T18:05:57.795Z,0.48
2022-12-29T18:08:24.669Z,0.50
2022-12-29T18:10:53.937Z,0.52
2022-12-29T18:13:39.318Z,0.49
2022-12-29T18:16:12.309Z,0.48
2022-12-29T18:18:39.059Z,0.42
2022-12-29T18:21:05.892Z,0.40
2022-12-29T18:23:35.454Z,0.37
2022-12-29T18:26:02.070Z,0.35
2022-12-29T18:28:29.456Z,0.31
2022-12-29T18:30:58.473Z,0.31
2022-12-29T18:33:26.756Z,0.33
2022-12-29T18:36:05.749Z,0.31
2022-12-29T18:38:32.565Z,0.23
2022-12-29T18:40:59.525Z,0.22
2022-12-29T18:43:26.344Z,0.21
2022-12-29T18:45:52.965Z,0.20
2022-12-29T18:48:20.994Z,0.20
2022-12-29T18:50:51.095Z,0.26
2022-12-29T18:53:23.919Z,0.28
2022-12-29T18:55:54.592Z,0.30
2022-12-29T18:58:21.221Z,0.24
2022-12-29T19:00:48.324Z,0.34
2022-12-29T19:03:17.303Z,0.39
2022-12-29T19:05:46.156Z,0.43
2022-12-29T19:08:13.565Z,0.44
2022-12-29T19:10:41.991Z,0.34
2022-12-29T19:13:17.418Z,0.44
2022-12-29T19:15:46.621Z,0.41
2022-12-29T19:21:09.891Z,0.46
2022-12-29T19:23:36.568Z,0.45
2022-12-29T19:26:03.251Z,0.48
2022-12-29T19:28:30.058Z,0.47
2022-12-29T19:31:00.319Z,0.48
2022-12-29T19:33:28.239Z,0.50
2022-12-29T19:35:59.905Z,0.52
2022-12-29T19:38:26.505Z,0.51
2022-12-29T19:40:53.172Z,0.54
2022-12-29T19:43:20.027Z,0.54
2022-12-29T19:45:46.679Z,0.56
2022-12-29T19:48:15.984Z,0.59
2022-12-29T19:50:43.632Z,0.61
2022-12-29T19:53:10.922Z,0.64
2022-12-29T19:55:37.699Z,0.67
2022-12-29T19:58:04.328Z,0.74
2022-12-29T20:00:31.007Z,0.75
2022-12-29T20:02:57.994Z,0.85
2022-12-29T20:05:24.789Z,0.90
2022-12-29T20:07:51.418Z,0.94
2022-12-29T20:10:18.422Z,0.88
2022-12-29T20:12:45.188Z,0.85
2022-12-29T20:15:16.367Z,0.89
2022-12-29T20:18:12.546Z,0.92
2022-12-29T20:20:29.645Z,0.91
2022-12-29T20:22:57.840Z,0.94
2022-12-29T20:28:11.544Z,0.93
2022-12-29T20:30:38.111Z,0.96
2022-12-29T20:33:08.014Z,0.96
2022-12-29T20:35:36.037Z,1.00
2022-12-29T20:38:02.908Z,1.03
2022-12-29T20:40:29.645Z,1.06
2022-12-29T20:42:56.329Z,1.08
2022-12-29T20:45:23.092Z,1.09
2022-12-29T20:47:49.752Z,1.11
2022-12-29T20:50:16.366Z,1.15
2022-12-29T20:52:44.138Z,1.16
2022-12-29T20:55:10.877Z,1.22
2022-12-29T20:58:05.610Z,1.23
2022-12-29T21:00:25.815Z,1.25
2022-12-29T21:02:53.068Z,1.27
2022-12-29T21:05:24.340Z,1.28
2022-12-29T21:07:53.389Z,1.29
2022-12-29T21:10:20.976Z,1.29
2022-12-29T21:12:48.656Z,1.32
2022-12-29T21:15:16.000Z,1.34
2022-12-29T21:17:43.765Z,1.36
2022-12-29T21:20:20.288Z,1.38
2022-12-29T21:22:47.882Z,1.38
2022-12-29T21:25:14.904Z,1.37
2022-12-29T21:27:45.429Z,1.39
2022-12-29T21:30:13.315Z,1.42
2022-12-29T21:32:41.411Z,1.44
2022-12-29T21:35:09.237Z,1.46
2022-12-29T21:37:36.222Z,1.47
2022-12-29T21:40:03.940Z,1.46
2022-12-29T21:42:30.777Z,1.41
2022-12-29T21:45:20.461Z,1.45
2022-12-29T21:48:06.876Z,1.48
2022-12-29T21:50:33.862Z,1.46
2022-12-29T21:53:00.584Z,1.47
2022-12-29T21:55:27.189Z,1.46
2022-12-29T21:58:12.445Z,1.40
2022-12-29T22:00:57.487Z,1.34
2022-12-29T22:03:43.035Z,1.35
2022-12-29T22:06:31.055Z,1.35
2022-12-29T22:09:16.132Z,1.31
2022-12-29T22:12:00.996Z,1.21
2022-12-29T22:14:27.684Z,1.24
2022-12-29T22:16:54.268Z,1.33
2022-12-29T22:19:21.127Z,1.33
2022-12-29T22:21:47.760Z,1.37
2022-12-29T22:24:14.401Z,1.36
2022-12-29T22:26:41.234Z,1.36
2022-12-29T22:29:08.156Z,1.37
2022-12-29T22:31:34.988Z,1.43
2022-12-29T22:34:03.318Z,1.46
2022-12-29T22:36:30.272Z,1.48
2022-12-29T22:38:57.162Z,1.52
2022-12-29T22:41:24.513Z,1.55
2022-12-29T22:43:51.338Z,1.57
2022-12-29T22:46:17.978Z,1.59
2022-12-29T22:48:44.561Z,1.63
2022-12-29T22:51:11.456Z,1.64
2022-12-29T22:53:38.137Z,1.65
2022-12-29T22:56:10.419Z,1.69
2022-12-29T22:58:47.724Z,1.71
2022-12-29T23:01:16.870Z,1.69
2022-12-29T23:03:44.491Z,1.66
2022-12-29T23:06:13.467Z,1.65
2022-12-29T23:08:40.292Z,1.63
2022-12-29T23:11:08.848Z,1.62
2022-12-29T23:13:35.831Z,1.65
2022-12-29T23:16:02.485Z,1.65
2022-12-29T23:18:29.781Z,1.68
2022-12-29T23:20:56.495Z,1.68
2022-12-29T23:23:48.412Z,1.68
2022-12-29T23:26:36.667Z,1.73
2022-12-29T23:29:06.561Z,1.76
2022-12-29T23:31:34.759Z,1.75
2022-12-29T23:34:02.635Z,1.78
2022-12-29T23:36:30.625Z,1.83
2022-12-29T23:38:57.540Z,1.87
2022-12-29T23:41:24.601Z,1.89
2022-12-29T23:43:51.227Z,1.85
2022-12-29T23:46:21.109Z,1.94
2022-12-29T23:48:48.226Z,1.94
2022-12-29T23:51:14.920Z,1.89
2022-12-29T23:53:43.544Z,1.94
2022-12-29T23:56:15.996Z,1.94
2022-12-29T23:58:42.902Z,1.94
